Αναφορές METAR Αεροδρομίων

 

LGTS - THESSALONIKI - GREECE
Ενημερώθηκε: 18/10/2019 02:50
Αραιές Νεφώσεις
Αραιές Νεφώσεις
 Ανεμος από ΑΝΑ
Ανεμος: ΑΝΑ 9 km/h
Θερμοκρασία: 16°C
Σημείο Δρόσου: 15°C
Υγρασία: 94%
Βαρόμετρο: 1019 hPa
Clouds: Αραιές Νεφώσεις
Visibility: 10 km
Cloud details: Αραιές Νεφώσεις 305 m
2019/10/17 23:50 LGTS 172350Z 11005KT 9999 FEW010 16/15 Q1019 NOSIG
LGLR - LARTISA - GREECE
Ενημερώθηκε: 18/10/2019 02:50
Αραιές Νεφώσεις
Αραιές Νεφώσεις
 Ανεμος από calm
Ανεμος: Απνοια
Θερμοκρασία: 16°C
Σημείο Δρόσου: 15°C
Υγρασία: 94%
Βαρόμετρο: 1018 hPa
Clouds: Αραιές Νεφώσεις
Visibility: 10 km
Cloud details: Αραιές Νεφώσεις 914 m
2019/10/17 23:50 LGLR 172350Z 00000KT 9999 FEW030 16/15 Q1018 RMK FEW080 BLU
 
LGKZ - KOZANI - GREECE
Ενημερώθηκε: 17/10/2019 20:50
NOT Current
Αραιές Νεφώσεις
Αραιές Νεφώσεις
 Ανεμος από calm
Ανεμος: Απνοια
Θερμοκρασία: 16°C
Σημείο Δρόσου: 11°C
Υγρασία: 72%
Βαρόμετρο: 1020 hPa
Clouds: Αραιές Νεφώσεις
Visibility: 10 km
Cloud details: Αραιές Νεφώσεις 2134 m
2019/10/17 17:50 LGKZ 171750Z 00000KT 9999 FEW070 16/11 Q1020
LGKV - KAVALA - GREECE
Ενημερώθηκε: 17/10/2019 22:50
NOT Current
Αραιές Νεφώσεις
Αραιές Νεφώσεις
 Ανεμος από Α
Ανεμος: Α 6 km/h
Θερμοκρασία: 16°C
Σημείο Δρόσου: 15°C
Υγρασία: 94%
Βαρόμετρο: 1018 hPa
Clouds: Αραιές Νεφώσεις
Visibility: 10 km
Cloud details: Αραιές Νεφώσεις 610 m
2019/10/17 19:50 LGKV 171950Z 08003KT 9999 FEW020 16/15 Q1018
 
LGIO - IOANNINA - GREECE
Ενημερώθηκε: 18/10/2019 02:50

 Ανεμος από varies
Ανεμος: varies 2 km/h
Θερμοκρασία: 11°C
Σημείο Δρόσου: 10°C
Υγρασία: 94%
Βαρόμετρο: 1020 hPa
2019/10/17 23:50 LGIO 172350Z AUTO VRB01KT //// // ////// 11/10 Q1020 RE//
LGBL - BOLOS - GREECE
Ενημερώθηκε: 18/10/2019 02:50
Αραιές Νεφώσεις
Αραιές Νεφώσεις
 Ανεμος από calm
Ανεμος: Απνοια
Θερμοκρασία: 15°C
Σημείο Δρόσου: 14°C
Υγρασία: 94%
Βαρόμετρο: 1018 hPa
Clouds: Αραιές Νεφώσεις
Visibility: 10 km
Cloud details: Αραιές Νεφώσεις 762 m
2019/10/17 23:50 LGBL 172350Z 00000KT 9999 FEW025 15/14 Q1018
 
LGMT - MITILINI - GREECE
Ενημερώθηκε: 17/10/2019 22:50
NOT Current
Αραιές Νεφώσεις
Αραιές Νεφώσεις
 Ανεμος από calm
Ανεμος: Απνοια
Θερμοκρασία: 19°C
Σημείο Δρόσου: 16°C
Υγρασία: 83%
Βαρόμετρο: 1018 hPa
Clouds: Αραιές Νεφώσεις
Visibility: 6 km
Cloud details: Αραιές Νεφώσεις 610 m
2019/10/17 19:50 LGMT 171950Z 00000KT 6000 FEW020 19/16 Q1018
LGAV - ATHENS - GREECE
Ενημερώθηκε: 18/10/2019 02:50
Αραιές Νεφώσεις
Αραιές Νεφώσεις
 Ανεμος από ΔΒΔ
Ανεμος: ΔΒΔ 7 km/h
Θερμοκρασία: 15°C
Σημείο Δρόσου: 13°C
Υγρασία: 88%
Βαρόμετρο: 1019 hPa
Clouds: Αραιές Νεφώσεις
Visibility: 10 km
Cloud details: Αραιές Νεφώσεις 610 m
2019/10/17 23:50 LGAV 172350Z 29004KT 9999 FEW020 15/13 Q1019 NOSIG
 
LGRP - RODOS - GREECE
Ενημερώθηκε: 18/10/2019 02:50
Αραιές Νεφώσεις
Αραιές Νεφώσεις
 Ανεμος από varies
Ανεμος: varies 0 km/h
Θερμοκρασία: 21°C
Σημείο Δρόσου: 18°C
Υγρασία: 83%
Βαρόμετρο: 1016 hPa
Clouds: Αραιές Νεφώσεις
Visibility: 10 km
Cloud details: Αραιές Νεφώσεις 457 m
2019/10/17 23:50 LGRP 172350Z /////KT 9999 FEW015 21/18 Q1016 NOSIG
LGIR - HRAKLIO/KRITI - GREECE
Ενημερώθηκε: 18/10/2019 02:50
Αραιές Νεφώσεις
Αραιές Νεφώσεις
 Ανεμος από Ν
Ανεμος: Ν 7 km/h
Θερμοκρασία: 19°C
Σημείο Δρόσου: 17°C
Υγρασία: 88%
Βαρόμετρο: 1017 hPa
Clouds: Αραιές Νεφώσεις
Visibility: 10 km
Cloud details: Αραιές Νεφώσεις 2438 m
2019/10/17 23:50 LGIR 172350Z 19004KT 9999 FEW080 19/17 Q1017 NOSIG
 
LGMK - MIKONOS - GREECE
Ενημερώθηκε: 18/10/2019 02:50
Αραιές Νεφώσεις
Αραιές Νεφώσεις
 Ανεμος από varies
Ανεμος: varies 6 km/h
Θερμοκρασία: 18°C
Σημείο Δρόσου: 16°C
Υγρασία: 88%
Βαρόμετρο: 1018 hPa
Clouds: Αραιές Νεφώσεις
Visibility: 10 km
Cloud details: Αραιές Νεφώσεις 610 m
2019/10/17 23:50 LGMK 172350Z VRB03KT 9999 FEW020 18/16 Q1018
LGKR - KERKIRA - GREECE
Ενημερώθηκε: 18/10/2019 02:50
Αραιές Νεφώσεις
Αραιές Νεφώσεις
 Ανεμος από Δ
Ανεμος: Δ 7 km/h
Θερμοκρασία: 18°C
Σημείο Δρόσου: 17°C
Υγρασία: 94%
Βαρόμετρο: 1018 hPa
Clouds: Αραιές Νεφώσεις
Visibility: 10 km
Cloud details: Αραιές Νεφώσεις 457 m
2019/10/17 23:50 LGKR 172350Z 27004KT 9999 FEW015 18/17 Q1018 NOSIG